sensor_id;sensor_type;location;lat;lon;timestamp;P1;durP1;ratioP1;P2;durP2;ratioP2
40286;SDS011;25998;46.604;13.610;2023-02-15T00:01:24;7.03;;;2.63;;
40286;SDS011;25998;46.604;13.610;2023-02-15T00:04:35;6.43;;;3.05;;
40286;SDS011;25998;46.604;13.610;2023-02-15T00:07:58;4.55;;;3.00;;
40286;SDS011;25998;46.604;13.610;2023-02-15T00:11:10;4.70;;;2.92;;
40286;SDS011;25998;46.604;13.610;2023-02-15T00:14:23;5.03;;;3.15;;
40286;SDS011;25998;46.604;13.610;2023-02-15T00:17:34;5.55;;;3.28;;
40286;SDS011;25998;46.604;13.610;2023-02-15T00:20:45;4.20;;;2.85;;
40286;SDS011;25998;46.604;13.610;2023-02-15T00:23:56;5.03;;;2.78;;
40286;SDS011;25998;46.604;13.610;2023-02-15T00:27:08;4.22;;;2.33;;
40286;SDS011;25998;46.604;13.610;2023-02-15T00:30:19;4.30;;;2.72;;
40286;SDS011;25998;46.604;13.610;2023-02-15T00:33:30;5.13;;;3.08;;
40286;SDS011;25998;46.604;13.610;2023-02-15T00:36:42;4.88;;;2.53;;
40286;SDS011;25998;46.604;13.610;2023-02-15T00:39:53;5.00;;;2.78;;
40286;SDS011;25998;46.604;13.610;2023-02-15T00:43:04;4.05;;;2.80;;
40286;SDS011;25998;46.604;13.610;2023-02-15T00:46:15;4.43;;;2.63;;
40286;SDS011;25998;46.604;13.610;2023-02-15T00:49:25;4.53;;;2.58;;
40286;SDS011;25998;46.604;13.610;2023-02-15T00:52:36;4.07;;;2.60;;
40286;SDS011;25998;46.604;13.610;2023-02-15T00:55:47;2.97;;;2.13;;
40286;SDS011;25998;46.604;13.610;2023-02-15T00:58:59;3.67;;;2.33;;
40286;SDS011;25998;46.604;13.610;2023-02-15T01:02:09;5.70;;;2.80;;
40286;SDS011;25998;46.604;13.610;2023-02-15T01:05:20;3.47;;;2.40;;
40286;SDS011;25998;46.604;13.610;2023-02-15T01:08:31;3.70;;;2.20;;
40286;SDS011;25998;46.604;13.610;2023-02-15T01:11:42;3.70;;;2.78;;
40286;SDS011;25998;46.604;13.610;2023-02-15T01:14:53;5.28;;;2.63;;
40286;SDS011;25998;46.604;13.610;2023-02-15T01:18:04;3.75;;;2.25;;
40286;SDS011;25998;46.604;13.610;2023-02-15T01:21:16;4.32;;;2.35;;
40286;SDS011;25998;46.604;13.610;2023-02-15T01:24:29;5.40;;;2.85;;
40286;SDS011;25998;46.604;13.610;2023-02-15T01:27:40;4.18;;;2.30;;
40286;SDS011;25998;46.604;13.610;2023-02-15T01:30:50;3.67;;;2.30;;
40286;SDS011;25998;46.604;13.610;2023-02-15T01:34:01;3.63;;;2.17;;
40286;SDS011;25998;46.604;13.610;2023-02-15T01:37:12;3.70;;;2.25;;
40286;SDS011;25998;46.604;13.610;2023-02-15T01:40:23;3.47;;;2.17;;
40286;SDS011;25998;46.604;13.610;2023-02-15T01:43:39;3.70;;;2.17;;
40286;SDS011;25998;46.604;13.610;2023-02-15T01:46:51;3.58;;;2.38;;
40286;SDS011;25998;46.604;13.610;2023-02-15T01:50:06;3.13;;;2.25;;
40286;SDS011;25998;46.604;13.610;2023-02-15T01:53:21;3.90;;;2.30;;
40286;SDS011;25998;46.604;13.610;2023-02-15T01:56:41;3.92;;;2.42;;
40286;SDS011;25998;46.604;13.610;2023-02-15T01:59:53;3.60;;;2.28;;
40286;SDS011;25998;46.604;13.610;2023-02-15T02:03:08;4.50;;;2.67;;
40286;SDS011;25998;46.604;13.610;2023-02-15T02:06:20;4.80;;;2.60;;
40286;SDS011;25998;46.604;13.610;2023-02-15T02:09:31;4.40;;;2.72;;
40286;SDS011;25998;46.604;13.610;2023-02-15T02:12:43;4.43;;;2.70;;
40286;SDS011;25998;46.604;13.610;2023-02-15T02:37:43;3.70;;;2.33;;
40286;SDS011;25998;46.604;13.610;2023-02-15T02:41:20;3.85;;;2.45;;
40286;SDS011;25998;46.604;13.610;2023-02-15T02:44:35;5.28;;;2.60;;
40286;SDS011;25998;46.604;13.610;2023-02-15T02:48:17;4.28;;;2.72;;
40286;SDS011;25998;46.604;13.610;2023-02-15T02:51:34;3.95;;;2.42;;
40286;SDS011;25998;46.604;13.610;2023-02-15T02:54:45;4.93;;;2.53;;
40286;SDS011;25998;46.604;13.610;2023-02-15T03:01:52;3.90;;;2.50;;
40286;SDS011;25998;46.604;13.610;2023-02-15T03:08:38;4.80;;;3.03;;
40286;SDS011;25998;46.604;13.610;2023-02-15T03:11:55;4.38;;;2.72;;
40286;SDS011;25998;46.604;13.610;2023-02-15T03:15:16;3.58;;;2.30;;
40286;SDS011;25998;46.604;13.610;2023-02-15T03:19:07;3.60;;;2.53;;
40286;SDS011;25998;46.604;13.610;2023-02-15T03:22:26;3.45;;;2.50;;
40286;SDS011;25998;46.604;13.610;2023-02-15T03:25:48;3.17;;;2.17;;
40286;SDS011;25998;46.604;13.610;2023-02-15T03:29:06;4.68;;;2.42;;
40286;SDS011;25998;46.604;13.610;2023-02-15T03:32:18;4.30;;;2.72;;
40286;SDS011;25998;46.604;13.610;2023-02-15T03:35:33;3.97;;;2.33;;
40286;SDS011;25998;46.604;13.610;2023-02-15T03:39:19;4.43;;;2.50;;
40286;SDS011;25998;46.604;13.610;2023-02-15T03:42:32;4.57;;;2.75;;
40286;SDS011;25998;46.604;13.610;2023-02-15T03:45:49;4.18;;;2.70;;
40286;SDS011;25998;46.604;13.610;2023-02-15T03:49:07;4.20;;;2.58;;
40286;SDS011;25998;46.604;13.610;2023-02-15T03:52:22;4.72;;;2.90;;
40286;SDS011;25998;46.604;13.610;2023-02-15T03:55:36;3.60;;;2.40;;
40286;SDS011;25998;46.604;13.610;2023-02-15T03:58:47;5.57;;;2.63;;
40286;SDS011;25998;46.604;13.610;2023-02-15T04:02:20;4.13;;;2.15;;
40286;SDS011;25998;46.604;13.610;2023-02-15T04:05:35;4.27;;;2.27;;
40286;SDS011;25998;46.604;13.610;2023-02-15T04:08:46;4.00;;;2.35;;
40286;SDS011;25998;46.604;13.610;2023-02-15T04:12:16;3.63;;;2.20;;
40286;SDS011;25998;46.604;13.610;2023-02-15T04:15:27;3.42;;;2.33;;
40286;SDS011;25998;46.604;13.610;2023-02-15T04:18:56;4.47;;;2.47;;
40286;SDS011;25998;46.604;13.610;2023-02-15T04:22:25;4.50;;;2.63;;
40286;SDS011;25998;46.604;13.610;2023-02-15T04:25:54;5.10;;;2.50;;
40286;SDS011;25998;46.604;13.610;2023-02-15T04:29:05;5.50;;;3.20;;
40286;SDS011;25998;46.604;13.610;2023-02-15T04:32:16;4.05;;;2.63;;
40286;SDS011;25998;46.604;13.610;2023-02-15T04:35:27;4.53;;;2.65;;
40286;SDS011;25998;46.604;13.610;2023-02-15T04:38:38;6.78;;;2.42;;
40286;SDS011;25998;46.604;13.610;2023-02-15T04:41:48;3.78;;;2.75;;
40286;SDS011;25998;46.604;13.610;2023-02-15T04:44:59;4.57;;;2.95;;
40286;SDS011;25998;46.604;13.610;2023-02-15T04:48:10;4.97;;;3.20;;
40286;SDS011;25998;46.604;13.610;2023-02-15T04:51:21;4.13;;;2.78;;
40286;SDS011;25998;46.604;13.610;2023-02-15T04:54:32;4.53;;;2.90;;
40286;SDS011;25998;46.604;13.610;2023-02-15T04:57:43;5.28;;;2.97;;
40286;SDS011;25998;46.604;13.610;2023-02-15T05:00:56;3.75;;;2.55;;
40286;SDS011;25998;46.604;13.610;2023-02-15T05:04:08;5.38;;;2.70;;
40286;SDS011;25998;46.604;13.610;2023-02-15T05:07:19;4.05;;;2.65;;
40286;SDS011;25998;46.604;13.610;2023-02-15T05:10:32;5.38;;;3.10;;
40286;SDS011;25998;46.604;13.610;2023-02-15T05:13:43;3.92;;;2.55;;
40286;SDS011;25998;46.604;13.610;2023-02-15T05:16:54;3.63;;;2.60;;
40286;SDS011;25998;46.604;13.610;2023-02-15T05:20:05;6.32;;;2.78;;
40286;SDS011;25998;46.604;13.610;2023-02-15T05:23:17;4.40;;;2.20;;
40286;SDS011;25998;46.604;13.610;2023-02-15T05:26:27;3.95;;;2.20;;
40286;SDS011;25998;46.604;13.610;2023-02-15T05:29:57;3.27;;;2.33;;
40286;SDS011;25998;46.604;13.610;2023-02-15T05:33:08;3.22;;;2.33;;
40286;SDS011;25998;46.604;13.610;2023-02-15T05:36:19;4.10;;;2.45;;
40286;SDS011;25998;46.604;13.610;2023-02-15T05:39:30;4.90;;;2.28;;
40286;SDS011;25998;46.604;13.610;2023-02-15T05:42:40;4.30;;;2.40;;
40286;SDS011;25998;46.604;13.610;2023-02-15T05:45:52;3.78;;;2.50;;
40286;SDS011;25998;46.604;13.610;2023-02-15T05:49:04;4.07;;;2.70;;
40286;SDS011;25998;46.604;13.610;2023-02-15T05:52:15;5.20;;;2.67;;
40286;SDS011;25998;46.604;13.610;2023-02-15T05:55:26;3.40;;;2.50;;
40286;SDS011;25998;46.604;13.610;2023-02-15T05:58:38;4.90;;;2.47;;
40286;SDS011;25998;46.604;13.610;2023-02-15T06:01:50;6.07;;;2.60;;
40286;SDS011;25998;46.604;13.610;2023-02-15T06:05:01;3.92;;;2.58;;
40286;SDS011;25998;46.604;13.610;2023-02-15T06:08:13;7.80;;;2.85;;
40286;SDS011;25998;46.604;13.610;2023-02-15T06:11:24;4.95;;;3.00;;
40286;SDS011;25998;46.604;13.610;2023-02-15T06:14:35;3.80;;;2.58;;
40286;SDS011;25998;46.604;13.610;2023-02-15T06:17:45;4.53;;;2.88;;
40286;SDS011;25998;46.604;13.610;2023-02-15T06:20:56;3.75;;;2.70;;
40286;SDS011;25998;46.604;13.610;2023-02-15T06:24:10;5.65;;;3.00;;
40286;SDS011;25998;46.604;13.610;2023-02-15T06:27:21;5.63;;;3.20;;
40286;SDS011;25998;46.604;13.610;2023-02-15T06:30:32;5.65;;;3.22;;
40286;SDS011;25998;46.604;13.610;2023-02-15T06:33:43;5.50;;;3.17;;
40286;SDS011;25998;46.604;13.610;2023-02-15T06:36:53;6.88;;;3.10;;
40286;SDS011;25998;46.604;13.610;2023-02-15T06:40:04;5.75;;;3.50;;
40286;SDS011;25998;46.604;13.610;2023-02-15T06:43:16;11.32;;;3.20;;
40286;SDS011;25998;46.604;13.610;2023-02-15T06:46:27;5.32;;;2.80;;
40286;SDS011;25998;46.604;13.610;2023-02-15T06:49:38;7.90;;;3.35;;
40286;SDS011;25998;46.604;13.610;2023-02-15T06:52:49;5.53;;;3.53;;
40286;SDS011;25998;46.604;13.610;2023-02-15T06:56:05;9.00;;;4.68;;
40286;SDS011;25998;46.604;13.610;2023-02-15T06:59:19;10.63;;;4.50;;
40286;SDS011;25998;46.604;13.610;2023-02-15T07:02:30;9.32;;;5.60;;
40286;SDS011;25998;46.604;13.610;2023-02-15T07:05:41;8.43;;;4.72;;
40286;SDS011;25998;46.604;13.610;2023-02-15T07:08:53;11.10;;;5.82;;
40286;SDS011;25998;46.604;13.610;2023-02-15T07:12:04;15.32;;;7.43;;
40286;SDS011;25998;46.604;13.610;2023-02-15T07:15:34;15.75;;;8.30;;
40286;SDS011;25998;46.604;13.610;2023-02-15T07:18:45;17.35;;;8.98;;
40286;SDS011;25998;46.604;13.610;2023-02-15T07:21:56;16.23;;;8.40;;
40286;SDS011;25998;46.604;13.610;2023-02-15T07:25:07;14.40;;;8.15;;
40286;SDS011;25998;46.604;13.610;2023-02-15T07:28:19;11.63;;;6.00;;
40286;SDS011;25998;46.604;13.610;2023-02-15T07:31:29;9.15;;;5.82;;
40286;SDS011;25998;46.604;13.610;2023-02-15T07:34:40;8.82;;;5.40;;
40286;SDS011;25998;46.604;13.610;2023-02-15T07:37:51;9.05;;;5.72;;
40286;SDS011;25998;46.604;13.610;2023-02-15T07:41:04;11.65;;;5.45;;
40286;SDS011;25998;46.604;13.610;2023-02-15T07:44:21;9.32;;;5.55;;
40286;SDS011;25998;46.604;13.610;2023-02-15T07:47:31;8.65;;;5.75;;
40286;SDS011;25998;46.604;13.610;2023-02-15T07:50:42;10.27;;;5.80;;
40286;SDS011;25998;46.604;13.610;2023-02-15T07:53:55;8.27;;;4.75;;
40286;SDS011;25998;46.604;13.610;2023-02-15T07:57:06;7.70;;;4.35;;
40286;SDS011;25998;46.604;13.610;2023-02-15T08:00:17;6.50;;;4.25;;
40286;SDS011;25998;46.604;13.610;2023-02-15T08:03:34;6.88;;;4.68;;
40286;SDS011;25998;46.604;13.610;2023-02-15T08:06:45;6.60;;;4.35;;
40286;SDS011;25998;46.604;13.610;2023-02-15T08:09:56;7.60;;;4.93;;
40286;SDS011;25998;46.604;13.610;2023-02-15T08:13:07;7.82;;;4.95;;
40286;SDS011;25998;46.604;13.610;2023-02-15T08:16:18;9.07;;;5.30;;
40286;SDS011;25998;46.604;13.610;2023-02-15T08:19:30;28.23;;;14.75;;
40286;SDS011;25998;46.604;13.610;2023-02-15T08:22:42;20.60;;;11.63;;
40286;SDS011;25998;46.604;13.610;2023-02-15T08:25:53;17.27;;;10.57;;
40286;SDS011;25998;46.604;13.610;2023-02-15T08:29:04;15.45;;;9.32;;
40286;SDS011;25998;46.604;13.610;2023-02-15T08:32:16;14.10;;;7.80;;
40286;SDS011;25998;46.604;13.610;2023-02-15T08:35:27;11.63;;;6.15;;
40286;SDS011;25998;46.604;13.610;2023-02-15T08:38:38;18.13;;;5.95;;
40286;SDS011;25998;46.604;13.610;2023-02-15T08:41:50;6.47;;;4.35;;
40286;SDS011;25998;46.604;13.610;2023-02-15T08:45:04;6.20;;;4.07;;
40286;SDS011;25998;46.604;13.610;2023-02-15T08:48:15;7.93;;;4.60;;
40286;SDS011;25998;46.604;13.610;2023-02-15T08:51:27;9.90;;;5.20;;
40286;SDS011;25998;46.604;13.610;2023-02-15T08:54:39;8.65;;;5.10;;
40286;SDS011;25998;46.604;13.610;2023-02-15T08:57:50;10.32;;;5.15;;
40286;SDS011;25998;46.604;13.610;2023-02-15T09:01:07;9.82;;;5.40;;
40286;SDS011;25998;46.604;13.610;2023-02-15T09:04:19;8.95;;;5.03;;
40286;SDS011;25998;46.604;13.610;2023-02-15T09:07:31;6.72;;;4.53;;
40286;SDS011;25998;46.604;13.610;2023-02-15T09:10:41;29.70;;;6.32;;
40286;SDS011;25998;46.604;13.610;2023-02-15T09:13:53;9.35;;;5.00;;
40286;SDS011;25998;46.604;13.610;2023-02-15T09:17:06;12.95;;;4.10;;
40286;SDS011;25998;46.604;13.610;2023-02-15T09:20:17;28.63;;;7.55;;
40286;SDS011;25998;46.604;13.610;2023-02-15T09:23:28;9.55;;;4.57;;
40286;SDS011;25998;46.604;13.610;2023-02-15T09:26:40;10.50;;;5.47;;
40286;SDS011;25998;46.604;13.610;2023-02-15T09:29:53;9.73;;;5.45;;
40286;SDS011;25998;46.604;13.610;2023-02-15T09:33:04;10.02;;;4.85;;
40286;SDS011;25998;46.604;13.610;2023-02-15T09:36:17;10.65;;;4.60;;
40286;SDS011;25998;46.604;13.610;2023-02-15T09:39:30;6.40;;;4.10;;
40286;SDS011;25998;46.604;13.610;2023-02-15T09:42:47;8.70;;;4.70;;
40286;SDS011;25998;46.604;13.610;2023-02-15T09:46:16;8.73;;;4.40;;
40286;SDS011;25998;46.604;13.610;2023-02-15T09:57:01;7.28;;;3.95;;
40286;SDS011;25998;46.604;13.610;2023-02-15T10:07:44;4.43;;;3.47;;
40286;SDS011;25998;46.604;13.610;2023-02-15T10:14:53;6.40;;;2.92;;
40286;SDS011;25998;46.604;13.610;2023-02-15T10:22:36;5.00;;;3.20;;
40286;SDS011;25998;46.604;13.610;2023-02-15T10:26:18;7.88;;;4.00;;
40286;SDS011;25998;46.604;13.610;2023-02-15T10:29:38;8.27;;;3.50;;
40286;SDS011;25998;46.604;13.610;2023-02-15T10:39:28;4.15;;;2.80;;
40286;SDS011;25998;46.604;13.610;2023-02-15T10:43:03;6.85;;;2.70;;
40286;SDS011;25998;46.604;13.610;2023-02-15T11:01:00;5.28;;;2.92;;
40286;SDS011;25998;46.604;13.610;2023-02-15T11:07:38;4.57;;;2.65;;
40286;SDS011;25998;46.604;13.610;2023-02-15T11:10:56;6.97;;;3.30;;
40286;SDS011;25998;46.604;13.610;2023-02-15T11:14:20;4.90;;;3.08;;
40286;SDS011;25998;46.604;13.610;2023-02-15T11:24:15;6.07;;;3.50;;
40286;SDS011;25998;46.604;13.610;2023-02-15T11:27:30;5.18;;;3.55;;
40286;SDS011;25998;46.604;13.610;2023-02-15T11:30:46;6.40;;;3.88;;
40286;SDS011;25998;46.604;13.610;2023-02-15T11:34:03;7.03;;;3.95;;
40286;SDS011;25998;46.604;13.610;2023-02-15T11:37:24;9.27;;;3.60;;
40286;SDS011;25998;46.604;13.610;2023-02-15T11:40:49;6.10;;;3.67;;
40286;SDS011;25998;46.604;13.610;2023-02-15T11:47:39;7.72;;;4.90;;
40286;SDS011;25998;46.604;13.610;2023-02-15T11:50:50;6.45;;;4.30;;
40286;SDS011;25998;46.604;13.610;2023-02-15T11:54:01;7.03;;;4.40;;
40286;SDS011;25998;46.604;13.610;2023-02-15T12:00:34;6.10;;;4.25;;
40286;SDS011;25998;46.604;13.610;2023-02-15T12:03:58;7.22;;;4.10;;
40286;SDS011;25998;46.604;13.610;2023-02-15T12:07:52;6.20;;;4.22;;
40286;SDS011;25998;46.604;13.610;2023-02-15T12:11:12;5.93;;;4.05;;
40286;SDS011;25998;46.604;13.610;2023-02-15T12:14:48;7.07;;;3.90;;
40286;SDS011;25998;46.604;13.610;2023-02-15T12:18:01;6.05;;;3.95;;
40286;SDS011;25998;46.604;13.610;2023-02-15T12:21:23;6.30;;;4.00;;
40286;SDS011;25998;46.604;13.610;2023-02-15T12:24:38;5.28;;;3.58;;
40286;SDS011;25998;46.604;13.610;2023-02-15T12:27:55;8.50;;;4.20;;
40286;SDS011;25998;46.604;13.610;2023-02-15T12:31:07;7.20;;;4.00;;
40286;SDS011;25998;46.604;13.610;2023-02-15T12:34:37;6.32;;;3.95;;
40286;SDS011;25998;46.604;13.610;2023-02-15T12:37:55;6.13;;;3.17;;
40286;SDS011;25998;46.604;13.610;2023-02-15T12:41:33;5.50;;;3.13;;
40286;SDS011;25998;46.604;13.610;2023-02-15T12:44:54;8.98;;;3.60;;
40286;SDS011;25998;46.604;13.610;2023-02-15T12:51:26;4.90;;;3.30;;
40286;SDS011;25998;46.604;13.610;2023-02-15T12:54:39;5.93;;;3.42;;
40286;SDS011;25998;46.604;13.610;2023-02-15T13:01:27;4.90;;;2.80;;
40286;SDS011;25998;46.604;13.610;2023-02-15T13:04:47;5.10;;;3.05;;
40286;SDS011;25998;46.604;13.610;2023-02-15T13:08:03;6.38;;;2.92;;
40286;SDS011;25998;46.604;13.610;2023-02-15T13:11:36;4.28;;;3.00;;
40286;SDS011;25998;46.604;13.610;2023-02-15T13:14:49;7.25;;;3.17;;
40286;SDS011;25998;46.604;13.610;2023-02-15T13:18:02;4.78;;;2.67;;
40286;SDS011;25998;46.604;13.610;2023-02-15T13:21:19;5.28;;;2.88;;
40286;SDS011;25998;46.604;13.610;2023-02-15T13:24:43;5.93;;;3.00;;
40286;SDS011;25998;46.604;13.610;2023-02-15T13:28:03;3.97;;;2.70;;
40286;SDS011;25998;46.604;13.610;2023-02-15T13:31:17;6.15;;;3.38;;
40286;SDS011;25998;46.604;13.610;2023-02-15T13:34:30;6.60;;;3.67;;
40286;SDS011;25998;46.604;13.610;2023-02-15T13:37:48;4.88;;;3.05;;
40286;SDS011;25998;46.604;13.610;2023-02-15T13:41:04;6.75;;;3.05;;
40286;SDS011;25998;46.604;13.610;2023-02-15T13:47:45;5.18;;;3.33;;
40286;SDS011;25998;46.604;13.610;2023-02-15T13:51:07;5.20;;;2.92;;
40286;SDS011;25998;46.604;13.610;2023-02-15T13:58:00;3.95;;;2.63;;
40286;SDS011;25998;46.604;13.610;2023-02-15T14:01:33;4.60;;;2.85;;
40286;SDS011;25998;46.604;13.610;2023-02-15T14:15:47;6.32;;;3.67;;
40286;SDS011;25998;46.604;13.610;2023-02-15T14:22:40;6.13;;;3.20;;
40286;SDS011;25998;46.604;13.610;2023-02-15T14:25:56;10.57;;;3.67;;
40286;SDS011;25998;46.604;13.610;2023-02-15T14:29:41;6.53;;;3.20;;
40286;SDS011;25998;46.604;13.610;2023-02-15T14:36:26;21.52;;;5.43;;
40286;SDS011;25998;46.604;13.610;2023-02-15T14:47:28;7.80;;;3.28;;
40286;SDS011;25998;46.604;13.610;2023-02-15T14:50:47;6.22;;;3.10;;
40286;SDS011;25998;46.604;13.610;2023-02-15T14:53:58;9.32;;;3.90;;
40286;SDS011;25998;46.604;13.610;2023-02-15T15:00:32;11.88;;;3.38;;
40286;SDS011;25998;46.604;13.610;2023-02-15T15:03:49;11.35;;;3.80;;
40286;SDS011;25998;46.604;13.610;2023-02-15T15:07:25;12.18;;;3.95;;
40286;SDS011;25998;46.604;13.610;2023-02-15T15:14:41;5.32;;;2.95;;
40286;SDS011;25998;46.604;13.610;2023-02-15T15:21:06;11.70;;;3.88;;
40286;SDS011;25998;46.604;13.610;2023-02-15T15:27:48;13.77;;;7.07;;
40286;SDS011;25998;46.604;13.610;2023-02-15T15:31:08;16.23;;;8.70;;
40286;SDS011;25998;46.604;13.610;2023-02-15T15:49:05;9.40;;;7.10;;
40286;SDS011;25998;46.604;13.610;2023-02-15T15:52:26;4.22;;;2.90;;
40286;SDS011;25998;46.604;13.610;2023-02-15T15:55:41;7.60;;;3.72;;
40286;SDS011;25998;46.604;13.610;2023-02-15T15:58:56;8.43;;;4.57;;
40286;SDS011;25998;46.604;13.610;2023-02-15T16:02:11;11.40;;;4.28;;
40286;SDS011;25998;46.604;13.610;2023-02-15T16:05:34;10.77;;;3.80;;
40286;SDS011;25998;46.604;13.610;2023-02-15T16:08:46;5.40;;;3.25;;
40286;SDS011;25998;46.604;13.610;2023-02-15T16:11:57;19.70;;;13.00;;
40286;SDS011;25998;46.604;13.610;2023-02-15T16:15:16;11.15;;;6.65;;
40286;SDS011;25998;46.604;13.610;2023-02-15T16:18:51;7.53;;;4.70;;
40286;SDS011;25998;46.604;13.610;2023-02-15T16:22:02;15.10;;;9.70;;
40286;SDS011;25998;46.604;13.610;2023-02-15T16:25:19;11.02;;;7.18;;
40286;SDS011;25998;46.604;13.610;2023-02-15T16:28:49;23.60;;;15.30;;
40286;SDS011;25998;46.604;13.610;2023-02-15T16:35:25;22.40;;;11.85;;
40286;SDS011;25998;46.604;13.610;2023-02-15T16:41:53;27.58;;;12.93;;
40286;SDS011;25998;46.604;13.610;2023-02-15T16:45:06;7.40;;;4.90;;
40286;SDS011;25998;46.604;13.610;2023-02-15T16:48:24;11.10;;;5.82;;
40286;SDS011;25998;46.604;13.610;2023-02-15T16:51:38;10.70;;;5.40;;
40286;SDS011;25998;46.604;13.610;2023-02-15T16:54:56;13.35;;;5.63;;
40286;SDS011;25998;46.604;13.610;2023-02-15T16:58:16;8.20;;;4.82;;
40286;SDS011;25998;46.604;13.610;2023-02-15T17:01:29;8.93;;;5.70;;
40286;SDS011;25998;46.604;13.610;2023-02-15T17:04:42;13.25;;;6.32;;
40286;SDS011;25998;46.604;13.610;2023-02-15T17:14:31;12.00;;;7.60;;
40286;SDS011;25998;46.604;13.610;2023-02-15T17:17:51;11.10;;;7.90;;
40286;SDS011;25998;46.604;13.610;2023-02-15T17:21:08;13.32;;;8.45;;
40286;SDS011;25998;46.604;13.610;2023-02-15T17:24:24;9.55;;;6.50;;
40286;SDS011;25998;46.604;13.610;2023-02-15T17:27:44;9.45;;;6.47;;
40286;SDS011;25998;46.604;13.610;2023-02-15T17:31:01;10.38;;;6.32;;
40286;SDS011;25998;46.604;13.610;2023-02-15T17:38:19;8.00;;;5.32;;
40286;SDS011;25998;46.604;13.610;2023-02-15T17:41:34;7.40;;;5.22;;
40286;SDS011;25998;46.604;13.610;2023-02-15T17:44:47;6.10;;;4.68;;
40286;SDS011;25998;46.604;13.610;2023-02-15T17:47:59;8.50;;;5.13;;
40286;SDS011;25998;46.604;13.610;2023-02-15T17:51:13;13.05;;;5.28;;
40286;SDS011;25998;46.604;13.610;2023-02-15T17:54:25;7.95;;;4.43;;
40286;SDS011;25998;46.604;13.610;2023-02-15T17:57:54;6.60;;;4.50;;
40286;SDS011;25998;46.604;13.610;2023-02-15T18:01:11;13.13;;;5.75;;
40286;SDS011;25998;46.604;13.610;2023-02-15T18:04:45;8.82;;;5.32;;
40286;SDS011;25998;46.604;13.610;2023-02-15T18:08:15;7.60;;;5.28;;
40286;SDS011;25998;46.604;13.610;2023-02-15T18:11:46;13.80;;;6.15;;
40286;SDS011;25998;46.604;13.610;2023-02-15T18:14:58;10.20;;;5.68;;
40286;SDS011;25998;46.604;13.610;2023-02-15T18:18:12;8.27;;;5.00;;
40286;SDS011;25998;46.604;13.610;2023-02-15T18:21:23;7.13;;;5.00;;
40286;SDS011;25998;46.604;13.610;2023-02-15T18:24:34;8.23;;;4.63;;
40286;SDS011;25998;46.604;13.610;2023-02-15T18:27:45;6.95;;;4.78;;
40286;SDS011;25998;46.604;13.610;2023-02-15T18:30:59;8.43;;;5.53;;
40286;SDS011;25998;46.604;13.610;2023-02-15T18:34:14;7.57;;;4.82;;
40286;SDS011;25998;46.604;13.610;2023-02-15T18:37:48;7.57;;;4.93;;
40286;SDS011;25998;46.604;13.610;2023-02-15T18:41:01;8.10;;;4.53;;
40286;SDS011;25998;46.604;13.610;2023-02-15T18:44:12;8.35;;;4.80;;
40286;SDS011;25998;46.604;13.610;2023-02-15T18:47:24;8.18;;;4.93;;
40286;SDS011;25998;46.604;13.610;2023-02-15T18:50:35;7.38;;;5.07;;
40286;SDS011;25998;46.604;13.610;2023-02-15T18:53:48;12.80;;;6.07;;
40286;SDS011;25998;46.604;13.610;2023-02-15T18:57:02;10.10;;;6.80;;
40286;SDS011;25998;46.604;13.610;2023-02-15T19:00:14;10.73;;;6.15;;
40286;SDS011;25998;46.604;13.610;2023-02-15T19:03:42;9.45;;;6.57;;
40286;SDS011;25998;46.604;13.610;2023-02-15T19:06:54;8.93;;;5.90;;
40286;SDS011;25998;46.604;13.610;2023-02-15T19:10:06;10.85;;;5.78;;
40286;SDS011;25998;46.604;13.610;2023-02-15T19:13:22;7.20;;;4.60;;
40286;SDS011;25998;46.604;13.610;2023-02-15T19:16:34;7.57;;;4.78;;
40286;SDS011;25998;46.604;13.610;2023-02-15T19:19:45;7.13;;;5.10;;
40286;SDS011;25998;46.604;13.610;2023-02-15T19:22:57;8.90;;;5.68;;
40286;SDS011;25998;46.604;13.610;2023-02-15T19:26:10;5.95;;;4.43;;
40286;SDS011;25998;46.604;13.610;2023-02-15T19:29:25;8.55;;;5.38;;
40286;SDS011;25998;46.604;13.610;2023-02-15T19:32:38;7.53;;;5.00;;
40286;SDS011;25998;46.604;13.610;2023-02-15T19:35:50;6.57;;;4.60;;
40286;SDS011;25998;46.604;13.610;2023-02-15T19:39:07;7.97;;;4.88;;
40286;SDS011;25998;46.604;13.610;2023-02-15T19:42:33;6.32;;;4.38;;
40286;SDS011;25998;46.604;13.610;2023-02-15T19:45:44;8.85;;;4.82;;
40286;SDS011;25998;46.604;13.610;2023-02-15T19:48:55;7.63;;;4.75;;
40286;SDS011;25998;46.604;13.610;2023-02-15T19:52:12;8.05;;;4.90;;
40286;SDS011;25998;46.604;13.610;2023-02-15T19:55:30;9.43;;;4.65;;
40286;SDS011;25998;46.604;13.610;2023-02-15T19:58:42;7.80;;;4.38;;
40286;SDS011;25998;46.604;13.610;2023-02-15T20:01:53;8.10;;;5.38;;
40286;SDS011;25998;46.604;13.610;2023-02-15T20:05:05;12.68;;;7.13;;
40286;SDS011;25998;46.604;13.610;2023-02-15T20:08:16;9.35;;;6.13;;
40286;SDS011;25998;46.604;13.610;2023-02-15T20:11:29;8.73;;;5.72;;
40286;SDS011;25998;46.604;13.610;2023-02-15T20:14:40;7.75;;;5.22;;
40286;SDS011;25998;46.604;13.610;2023-02-15T20:17:52;8.52;;;5.00;;
40286;SDS011;25998;46.604;13.610;2023-02-15T20:21:04;9.30;;;5.45;;
40286;SDS011;25998;46.604;13.610;2023-02-15T20:24:20;7.88;;;5.18;;
40286;SDS011;25998;46.604;13.610;2023-02-15T20:27:33;8.07;;;5.05;;
40286;SDS011;25998;46.604;13.610;2023-02-15T20:30:46;6.38;;;4.35;;
40286;SDS011;25998;46.604;13.610;2023-02-15T20:33:57;8.40;;;5.20;;
40286;SDS011;25998;46.604;13.610;2023-02-15T20:37:13;12.30;;;4.95;;
40286;SDS011;25998;46.604;13.610;2023-02-15T20:40:31;6.30;;;3.90;;
40286;SDS011;25998;46.604;13.610;2023-02-15T20:43:43;8.15;;;3.63;;
40286;SDS011;25998;46.604;13.610;2023-02-15T20:46:55;5.95;;;4.00;;
40286;SDS011;25998;46.604;13.610;2023-02-15T20:50:07;7.95;;;5.00;;
40286;SDS011;25998;46.604;13.610;2023-02-15T20:53:18;8.65;;;4.28;;
40286;SDS011;25998;46.604;13.610;2023-02-15T20:56:32;7.70;;;5.00;;
40286;SDS011;25998;46.604;13.610;2023-02-15T20:59:43;7.22;;;4.00;;
40286;SDS011;25998;46.604;13.610;2023-02-15T21:02:55;6.68;;;4.18;;
40286;SDS011;25998;46.604;13.610;2023-02-15T21:06:08;5.18;;;3.50;;
40286;SDS011;25998;46.604;13.610;2023-02-15T21:09:24;5.03;;;2.72;;
40286;SDS011;25998;46.604;13.610;2023-02-15T21:12:35;4.80;;;3.53;;
40286;SDS011;25998;46.604;13.610;2023-02-15T21:15:46;5.22;;;3.80;;
40286;SDS011;25998;46.604;13.610;2023-02-15T21:18:57;5.85;;;3.50;;
40286;SDS011;25998;46.604;13.610;2023-02-15T21:22:11;5.43;;;3.22;;
40286;SDS011;25998;46.604;13.610;2023-02-15T21:25:25;5.45;;;3.22;;
40286;SDS011;25998;46.604;13.610;2023-02-15T21:28:39;4.53;;;2.72;;
40286;SDS011;25998;46.604;13.610;2023-02-15T21:31:50;4.60;;;2.75;;
40286;SDS011;25998;46.604;13.610;2023-02-15T21:35:01;5.72;;;3.15;;
40286;SDS011;25998;46.604;13.610;2023-02-15T21:38:15;4.15;;;2.90;;
40286;SDS011;25998;46.604;13.610;2023-02-15T21:41:31;4.53;;;3.03;;
40286;SDS011;25998;46.604;13.610;2023-02-15T21:45:01;3.97;;;2.63;;
40286;SDS011;25998;46.604;13.610;2023-02-15T21:48:34;5.28;;;2.60;;
40286;SDS011;25998;46.604;13.610;2023-02-15T21:51:45;4.18;;;2.45;;
40286;SDS011;25998;46.604;13.610;2023-02-15T21:55:15;3.35;;;2.13;;
40286;SDS011;25998;46.604;13.610;2023-02-15T21:58:27;4.18;;;2.55;;
40286;SDS011;25998;46.604;13.610;2023-02-15T22:01:41;4.22;;;2.78;;
40286;SDS011;25998;46.604;13.610;2023-02-15T22:04:59;4.95;;;2.83;;
40286;SDS011;25998;46.604;13.610;2023-02-15T22:08:11;4.13;;;2.63;;
40286;SDS011;25998;46.604;13.610;2023-02-15T22:11:23;4.13;;;2.55;;